Gettysburg, SD

12:34 CDT le 31 juillet 2014 (GMT -0500)
Aberdeen Regional (KABR) Alt. 1299 ft | 45.44 °N, 98.41 °W | Change Station

Current weather conditions updated 41 minutes ago

Clear
Ciel dégagé
79 ° F
Paraît 79 ° F
N
6
Vent Variable Vent de NE

Aujourd’hui il est prévu de faire pratiquement la même température qu’hier.

Aujourd'hui
Haut(e) -- | Bas -- ° F
--% Risque de précip.
Hier
Haut(e) -- | Bas -- ° F
Precip. -- pouce
6:24 AM 9:07 PM
Lune montante, 19% visible
Pression 30.07 pouce
Visibilité 10.0 Miles terrestres
Nuages Ciel dégagé
Point de rosée 54 ° F
Humidité 42%
Précipitations 0.00 pouce
Profondeur de la couche neigeuse Non disponible.
UV 9 sur 12
Pollen 7.40 sur 12
Qualité de l'air Non disponible.
Flu Activity Non disponible.
METAR KABR 311653Z AUTO 05005KT 10SM CLR 26/12 A3008 RMK AO2 SLP181 T02610122

More Conditions Fewer Conditions

Pression 30.07 pouce
Visibilité 10.0 Miles terrestres
Nuages Ciel dégagé
Point de rosée 54 ° F
Humidité 42%
Précipitations 0.00 pouce
Profondeur de la couche neigeuse Non disponible.
UV 9 sur 12
Pollen 7.40 sur 12
Qualité de l'air Non disponible.
Flu Activity Non disponible.
METAR KABR 311653Z AUTO 05005KT 10SM CLR 26/12 A3008 RMK AO2 SLP181 T02610122

More Conditions Fewer Conditions

10-Day Weather Forecast

Almanac

Astronomie

Jul. 31, 2014 Lever Coucher
Temps réel 06:24 CDT 21:07 CDT
Crépuscule civil 05:50 CDT 21:41 CDT
Crépuscule nautique 05:07 CDT 22:24 CDT
Crépuscule astronomique 04:17 CDT 23:13 CDT
Lune 11:07 CDT 23:06 CDT
Durée de lumière visible 15h 51m
Longueur du jour
14h 43m
Tomorrow will be 2m 24s shorter.
Lune montante, 19% of the Moon is Illuminated
Aujourd'hui
Lune montante
août 3
Premier quartier
août 10
Pleine lune
août 17
Dernier quartier
août 25
Nouveau

Extrêmes aujourd'hui

State Highs State Lows

Community

WunderPhotos

Upload Photos

1,739,385 Photos téléchargées !

Nearby

Épaisseur de neige

Station Depth Altitude
Blind Park 1 in 6890 ft

Activité sismique

Ville Distance Mag. Time & Date
No recent earthquake activity has been reported nearby.
Minimum magnitude displayed is 2.5.

Températures des eaux côtières

Lieu Température
Aucun rapport de station

Stations météo à proximité

Emplacement de la station Température indice de chaleur Point de rosée Humidité Vent Precip. Alt. Mise à jour Type
Hoven, SD 80.6 ° F 79 ° F 45 ° F 29% NNO  à  4.0 mph 0.00 pouce / hr 1877 ft 12:30 PM CDT Normal

Show More Stations Show Fewer Stations